createdAt,value
2022-11-24T00:02:32.648Z,6.85
2022-11-24T00:07:34.422Z,6.94
2022-11-24T00:12:36.027Z,6.95
2022-11-24T00:17:37.537Z,6.94
2022-11-24T00:22:40.194Z,6.91
2022-11-24T00:27:43.245Z,6.96
2022-11-24T00:32:45.051Z,6.96
2022-11-24T00:37:46.535Z,6.92
2022-11-24T00:42:48.045Z,6.86
2022-11-24T00:47:49.556Z,7.00
2022-11-24T00:52:51.167Z,7.05
2022-11-24T00:57:52.751Z,7.11
2022-11-24T01:02:54.927Z,6.93
2022-11-24T01:07:56.525Z,6.92
2022-11-24T01:12:58.417Z,6.84
2022-11-24T01:18:00.011Z,6.69
2022-11-24T01:23:01.504Z,6.77
2022-11-24T01:28:03.310Z,6.68
2022-11-24T01:33:05.314Z,6.77
2022-11-24T01:38:06.877Z,6.77
2022-11-24T01:43:21.783Z,6.89
2022-11-24T01:48:29.955Z,6.81
2022-11-24T01:53:31.517Z,7.00
2022-11-24T01:58:34.568Z,6.89
2022-11-24T02:03:39.845Z,7.03
2022-11-24T02:08:48.899Z,7.05
2022-11-24T02:13:53.237Z,7.08
2022-11-24T02:18:54.799Z,6.97
2022-11-24T02:24:37.799Z,6.98
2022-11-24T02:29:40.195Z,6.94
2022-11-24T02:34:41.638Z,7.00
2022-11-24T02:39:43.088Z,6.95
2022-11-24T02:44:51.472Z,6.74
2022-11-24T02:49:53.137Z,6.81
2022-11-24T02:54:54.638Z,6.82
2022-11-24T02:59:56.583Z,6.70
2022-11-24T03:04:58.062Z,6.86
2022-11-24T03:09:59.688Z,6.81
2022-11-24T03:15:01.257Z,6.75
2022-11-24T03:20:05.217Z,6.77
2022-11-24T03:25:07.398Z,6.92
2022-11-24T03:30:09.901Z,6.82
2022-11-24T03:35:12.173Z,6.97
2022-11-24T03:40:13.948Z,6.98
2022-11-24T03:50:37.018Z,7.02
2022-11-24T03:55:38.476Z,7.00
2022-11-24T04:00:40.495Z,7.04
2022-11-24T04:05:42.177Z,6.99
2022-11-24T04:10:43.823Z,6.93
2022-11-24T04:15:45.349Z,6.91
2022-11-24T04:20:52.024Z,6.79
2022-11-24T04:25:53.447Z,6.74
2022-11-24T04:30:54.888Z,6.70
2022-11-24T04:35:56.438Z,6.70
2022-11-24T04:41:02.511Z,6.73
2022-11-24T04:46:04.013Z,6.81
2022-11-24T04:51:06.282Z,6.77
2022-11-24T04:56:08.116Z,6.96
2022-11-24T05:01:09.761Z,6.94
2022-11-24T05:06:11.254Z,7.05
2022-11-24T05:11:12.701Z,7.01
2022-11-24T05:16:14.105Z,7.00
2022-11-24T05:21:15.872Z,6.99
2022-11-24T05:26:17.299Z,6.93
2022-11-24T05:31:18.951Z,6.82
2022-11-24T05:36:38.772Z,6.80
2022-11-24T05:41:41.807Z,6.72
2022-11-24T05:46:43.317Z,6.67
2022-11-24T05:51:44.818Z,6.61
2022-11-24T05:56:46.280Z,6.55
2022-11-24T06:01:48.000Z,6.53
2022-11-24T06:06:49.549Z,6.59
2022-11-24T06:11:51.056Z,6.58
2022-11-24T06:16:52.487Z,6.57
2022-11-24T06:21:53.862Z,6.59
2022-11-24T06:26:55.291Z,6.55
2022-11-24T06:31:56.947Z,6.50
2022-11-24T06:36:58.446Z,6.46
2022-11-24T06:41:59.883Z,6.43
2022-11-24T06:47:01.682Z,6.38
2022-11-24T06:52:03.279Z,6.37
2022-11-24T06:57:04.701Z,6.41
2022-11-24T07:02:06.376Z,6.41
2022-11-24T07:07:07.848Z,6.41
2022-11-24T07:12:09.339Z,6.41
2022-11-24T07:17:10.746Z,6.40
2022-11-24T07:22:12.216Z,6.43
2022-11-24T07:27:13.668Z,6.37
2022-11-24T07:32:15.108Z,6.37
2022-11-24T07:37:16.793Z,6.42
2022-11-24T07:42:18.192Z,6.43
2022-11-24T07:47:19.663Z,6.43
2022-11-24T07:52:21.104Z,6.44
2022-11-24T07:57:23.445Z,6.46
2022-11-24T08:02:24.956Z,6.50
2022-11-24T08:07:26.340Z,6.51
2022-11-24T08:12:27.754Z,6.59
2022-11-24T08:17:29.346Z,6.61
2022-11-24T08:22:30.811Z,6.67
2022-11-24T08:27:32.299Z,6.67
2022-11-24T08:32:33.739Z,6.70
2022-11-24T08:37:35.148Z,6.72
2022-11-24T08:42:36.664Z,6.73
2022-11-24T08:47:39.750Z,6.74
2022-11-24T08:52:41.300Z,6.78
2022-11-24T08:57:42.661Z,6.77
2022-11-24T09:02:44.216Z,6.82
2022-11-24T09:07:45.839Z,6.81
2022-11-24T09:12:48.303Z,6.82
2022-11-24T09:17:49.850Z,6.89
2022-11-24T09:22:51.253Z,7.03
2022-11-24T09:27:52.643Z,7.11
2022-11-24T09:32:56.163Z,7.16
2022-11-24T09:37:57.563Z,7.03
2022-11-24T09:43:40.999Z,7.04
2022-11-24T09:48:47.791Z,7.08
2022-11-24T09:53:56.145Z,7.22
2022-11-24T09:59:26.257Z,7.22
2022-11-24T10:04:29.025Z,7.36
2022-11-24T10:09:56.788Z,7.40
2022-11-24T10:15:22.031Z,7.46
2022-11-24T10:20:48.622Z,7.49
2022-11-24T10:26:00.824Z,7.50
2022-11-24T10:31:21.653Z,7.68
2022-11-24T10:36:42.922Z,7.86
2022-11-24T10:41:56.838Z,7.88
2022-11-24T10:46:58.581Z,8.02
2022-11-24T10:52:15.766Z,8.18
2022-11-24T10:57:33.377Z,8.95
2022-11-24T11:02:36.368Z,9.10
2022-11-24T11:07:38.000Z,9.58
2022-11-24T11:12:44.384Z,9.49
2022-11-24T11:17:46.402Z,9.76
2022-11-24T11:22:50.564Z,9.72
2022-11-24T11:28:18.466Z,10.18
2022-11-24T11:38:48.596Z,10.36
2022-11-24T11:43:57.699Z,10.66
2022-11-24T11:48:59.843Z,10.47
2022-11-24T11:54:45.731Z,10.77
2022-11-24T12:00:09.635Z,10.64
2022-11-24T12:05:39.183Z,10.48
2022-11-24T12:10:48.119Z,10.25
2022-11-24T12:15:52.308Z,10.19
2022-11-24T12:21:26.000Z,10.30
2022-11-24T12:26:31.066Z,10.09
2022-11-24T12:31:52.379Z,10.25
2022-11-24T12:37:06.919Z,10.05
2022-11-24T12:42:14.433Z,9.93
2022-11-24T12:47:34.719Z,9.84
2022-11-24T12:53:03.705Z,9.86
2022-11-24T12:58:40.124Z,9.82
2022-11-24T13:04:08.321Z,9.76
2022-11-24T13:09:14.371Z,9.68
2022-11-24T13:14:17.727Z,9.81
2022-11-24T13:19:30.889Z,9.72
2022-11-24T13:24:36.542Z,9.67
2022-11-24T13:29:40.221Z,9.59
2022-11-24T13:34:49.996Z,9.69
2022-11-24T13:39:57.152Z,9.64
2022-11-24T13:45:04.162Z,9.71
2022-11-24T13:50:12.541Z,9.65
2022-11-24T13:55:13.979Z,9.73
2022-11-24T14:00:25.983Z,9.69
2022-11-24T14:05:35.608Z,9.53
2022-11-24T14:10:40.909Z,9.45
2022-11-24T14:15:42.401Z,9.49
2022-11-24T14:20:43.904Z,9.41
2022-11-24T14:25:51.154Z,9.35
2022-11-24T14:31:25.154Z,9.38
2022-11-24T14:36:29.816Z,9.26
2022-11-24T14:41:33.644Z,9.19
2022-11-24T14:46:36.575Z,9.00
2022-11-24T14:51:45.342Z,9.09
2022-11-24T14:57:04.747Z,8.89
2022-11-24T15:02:38.159Z,8.62
2022-11-24T15:07:43.227Z,8.50
2022-11-24T15:12:58.448Z,8.46
2022-11-24T15:18:01.716Z,8.50
2022-11-24T15:23:29.069Z,8.32
2022-11-24T15:28:31.316Z,8.18
2022-11-24T15:33:33.233Z,8.04
2022-11-24T15:38:35.001Z,7.87
2022-11-24T15:43:41.031Z,7.90
2022-11-24T15:48:42.437Z,7.94
2022-11-24T15:53:46.717Z,7.86
2022-11-24T15:58:49.401Z,7.65
2022-11-24T16:03:51.233Z,7.56
2022-11-24T16:08:53.944Z,7.60
2022-11-24T16:13:56.796Z,7.26
2022-11-24T16:18:58.264Z,7.52
2022-11-24T16:23:59.681Z,7.27
2022-11-24T16:29:01.038Z,7.31
2022-11-24T16:34:03.180Z,7.41
2022-11-24T16:39:07.153Z,7.47
2022-11-24T16:44:08.594Z,7.48
2022-11-24T16:49:10.029Z,7.48
2022-11-24T16:54:11.729Z,7.42
2022-11-24T16:59:13.157Z,7.35
2022-11-24T17:04:14.583Z,7.32
2022-11-24T17:09:16.881Z,7.22
2022-11-24T17:14:18.267Z,7.25
2022-11-24T17:19:20.116Z,7.29
2022-11-24T17:24:21.604Z,7.37
2022-11-24T17:29:23.062Z,7.35
2022-11-24T17:34:24.426Z,7.27
2022-11-24T17:39:27.287Z,7.32
2022-11-24T17:44:28.665Z,7.33
2022-11-24T17:49:30.076Z,7.38
2022-11-24T17:54:45.878Z,7.37
2022-11-24T17:59:48.040Z,7.34
2022-11-24T18:04:49.581Z,7.32
2022-11-24T18:09:51.028Z,7.41
2022-11-24T18:14:52.392Z,7.40
2022-11-24T18:19:53.778Z,7.24
2022-11-24T18:24:55.340Z,7.22
2022-11-24T18:29:56.810Z,7.37
2022-11-24T18:34:58.323Z,7.20
2022-11-24T18:40:00.242Z,7.26
2022-11-24T18:45:01.674Z,7.25
2022-11-24T18:50:03.321Z,7.14
2022-11-24T18:55:05.343Z,7.20
2022-11-24T19:00:07.780Z,7.02
2022-11-24T19:05:09.267Z,6.85
2022-11-24T19:10:11.289Z,6.95
2022-11-24T19:15:12.736Z,7.07
2022-11-24T19:20:14.377Z,6.86
2022-11-24T19:25:15.889Z,6.82
2022-11-24T19:30:17.305Z,6.79
2022-11-24T19:35:18.938Z,6.74
2022-11-24T19:40:20.363Z,6.77
2022-11-24T19:45:21.733Z,6.84
2022-11-24T19:50:23.208Z,6.75
2022-11-24T19:55:25.795Z,6.80
2022-11-24T20:00:31.846Z,6.62
2022-11-24T20:05:33.798Z,6.71
2022-11-24T20:10:35.352Z,6.69
2022-11-24T20:15:36.758Z,6.66
2022-11-24T20:20:38.273Z,6.58
2022-11-24T20:25:39.737Z,6.70
2022-11-24T20:30:41.165Z,6.59
2022-11-24T20:35:42.815Z,6.72
2022-11-24T20:40:44.267Z,6.60
2022-11-24T20:45:46.009Z,6.56
2022-11-24T20:50:51.296Z,6.72
2022-11-24T20:56:06.197Z,6.69
2022-11-24T21:01:16.648Z,6.79
2022-11-24T21:06:18.243Z,6.89
2022-11-24T21:11:20.867Z,7.04
2022-11-24T21:16:36.278Z,7.25
2022-11-24T21:21:39.326Z,7.14
2022-11-24T21:26:42.663Z,7.11
2022-11-24T21:31:44.202Z,7.14
2022-11-24T21:36:47.545Z,7.13
2022-11-24T21:41:49.149Z,7.00
2022-11-24T21:46:55.698Z,7.05
2022-11-24T21:51:57.641Z,7.18
2022-11-24T21:56:59.109Z,7.06
2022-11-24T22:02:02.368Z,7.00
2022-11-24T22:07:04.092Z,6.92
2022-11-24T22:12:05.817Z,6.84
2022-11-24T22:17:07.780Z,6.88
2022-11-24T22:22:10.088Z,6.83
2022-11-24T22:27:11.465Z,6.76
2022-11-24T22:32:13.048Z,6.83
2022-11-24T22:37:14.439Z,6.66
2022-11-24T22:42:15.848Z,6.60
2022-11-24T22:47:17.406Z,6.66
2022-11-24T22:52:18.972Z,6.68
2022-11-24T22:57:20.583Z,6.77
2022-11-24T23:02:21.966Z,6.82
2022-11-24T23:07:25.140Z,6.76
2022-11-24T23:12:26.793Z,6.87
2022-11-24T23:17:28.439Z,6.91
2022-11-24T23:22:31.153Z,7.09
2022-11-24T23:27:33.569Z,7.20
2022-11-24T23:32:34.944Z,7.10
2022-11-24T23:37:59.839Z,7.12
2022-11-24T23:42:57.961Z,7.06
2022-11-24T23:47:59.404Z,7.10
2022-11-24T23:53:00.776Z,7.13
2022-11-24T23:58:02.237Z,7.02
